Airfield :
LOGIN :

Register | Disclaimer

   EN    FR    IT 

 










Legend :    VFR   Marginal VFR   IFR   Intensive IFR   Very Intensive IFR
Visi :
Ceiling :
>= 8 km
>= 3000ft
5 to 8 km
1000 to 3000 ft
1500m to 5 km
500 to 1000 ft
800 to 1500m
200 to 500 ft
< 800m
< 200 ft
Symbols :   Thunderstorms  Fog  Heavy snow  Heavy precipitations  Wind > 20 kt
SIGMETs :     Misc.  Thunderstorms  Icing  Turbulence  Mountain Waves  Volcanic Ashes






- Airport Elevation : 218 ft


EGYD - RAF Cranwell

CURRENT METAR :
  • 151350Z 11010KT 9999 -RA FEW054 BKN084 BKN110 19/15 Q1008 NOSIG RMK BLU BLU

EXPIRED METARs :
  • 151320Z 11008KT 9999 -RA FEW036 BKN095 20/13 Q1008 NOSIG RMK BLU BLU
  • 151250Z 13009KT 9999 FEW036 BKN110 20/12 Q1008 NOSIG RMK BLU BLU
  • 151220Z 11009KT 9999 FEW034 BKN110 20/12 Q1008 NOSIG RMK BLU BLU
  • 151150Z 12008KT 9999 FEW034 BKN250 20/13 Q1008 NOSIG RMK BLU BLU
  • 151120Z 13008KT 9999 FEW033 BKN250 20/12 Q1009 NOSIG RMK BLU BLU
  • 151050Z 12009KT 9999 FEW031 BKN250 21/12 Q1009 NOSIG RMK BLU BLU
  • 151020Z 14008KT 9999 FEW029 SCT110 BKN250 20/13 Q1009 NOSIG RMK BLU BLU
  • 150950Z 14006KT 9999 FEW023 BKN250 20/13 Q1009 NOSIG RMK BLU BLU
  • 150920Z 13007KT 9999 FEW022 BKN250 19/13 Q1010 NOSIG RMK BLU BLU

TAF TAF EGYD
Valid from the 15 at 12:00 until the 15 at 18:00 UTC


151031Z 1512/1518 11010KT 9999 FEW030



MET'MAP, your aeronautical weather chart ! - Copyright ORBIFLY December 2007 - Disclaimer

ORBIFLY MET'MAP TEAM :

Programming & Development : Alexandra Zaïnal
Original concept : Baudouin d'Aumeries
Technical & hardware support : Manuel Goepfert
Assistance : Marc-Olivier Méhu




SOURCES & CREDITS :

   NOAA